Time;durP1;ratioP1;P1;durP2;ratioP2;P2;SDS_P1;SDS_P2;PMS_P1;PMS_P2;Temp;Humidity;BMP_temperature;BMP_pressure;BME280_temperature;BME280_humidity;BME280_pressure;Samples;Min_cycle;Max_cycle;Signal;HPM_P1;HPM_P2
2023/03/22 00:01:27;;;;;;;89.45;45.63;;;5.80;99.90;;;;;;5115220;28;20020;-76
2023/03/22 00:03:53;;;;;;;91.22;47.30;;;5.70;99.90;;;;;;5116707;28;20023;-76
2023/03/22 00:06:19;;;;;;;86.35;46.53;;;5.70;99.90;;;;;;5115480;28;20015;-78
2023/03/22 00:08:49;;;;;;;87.50;45.50;;;5.70;99.90;;;;;;5116749;28;20042;-78
2023/03/22 00:11:15;;;;;;;76.43;40.55;;;5.70;99.90;;;;;;5115418;28;20023;-76
2023/03/22 00:13:42;;;;;;;92.68;46.92;;;5.70;99.90;;;;;;5116671;28;20460;-76
2023/03/22 00:16:09;;;;;;;101.13;50.10;;;5.70;99.90;;;;;;5116449;28;20020;-78
2023/03/22 00:18:35;;;;;;;90.18;46.90;;;5.60;99.90;;;;;;5114023;28;20012;-79
2023/03/22 00:21:01;;;;;;;93.22;48.38;;;5.60;99.90;;;;;;5115277;28;20024;-76
2023/03/22 00:23:28;;;;;;;96.68;50.25;;;5.60;99.90;;;;;;5116372;27;20461;-76
2023/03/22 00:25:54;;;;;;;99.80;52.55;;;5.60;99.90;;;;;;5116406;28;20027;-78
2023/03/22 00:28:19;;;;;;;104.07;53.38;;;5.60;99.90;;;;;;5116122;28;20023;-79
2023/03/22 00:31:03;;;;;;;101.88;54.95;;;5.60;99.90;;;;;;5115033;28;20095;-78
2023/03/22 00:33:30;;;;;;;98.40;52.88;;;5.60;99.90;;;;;;5116356;28;20030;-79
2023/03/22 00:35:59;;;;;;;99.38;51.33;;;5.60;99.90;;;;;;5114794;28;20411;-76
2023/03/22 00:38:25;;;;;;;95.63;49.75;;;5.60;99.90;;;;;;5116116;28;20048;-78
2023/03/22 00:40:51;;;;;;;108.28;54.08;;;5.60;99.90;;;;;;5114285;28;20053;-78
2023/03/22 00:43:16;;;;;;;95.75;50.58;;;5.60;99.90;;;;;;5114809;28;20016;-78
2023/03/22 00:45:42;;;;;;;92.68;49.30;;;5.70;99.90;;;;;;5114580;28;20016;-76
2023/03/22 00:48:10;;;;;;;100.22;51.70;;;5.70;99.90;;;;;;5115875;28;20066;-78
2023/03/22 00:50:37;;;;;;;99.13;50.25;;;5.70;99.90;;;;;;5114589;28;20043;-77
2023/03/22 00:53:03;;;;;;;94.55;49.95;;;5.60;99.90;;;;;;5115824;27;20024;-78
2023/03/22 00:55:30;;;;;;;91.07;47.63;;;5.60;99.90;;;;;;5114806;28;20465;-76
2023/03/22 00:57:55;;;;;;;92.72;48.47;;;5.70;99.90;;;;;;5114413;28;20114;-80
2023/03/22 01:00:21;;;;;;;82.50;44.38;;;5.60;99.90;;;;;;5114594;28;20504;-76
2023/03/22 01:02:46;;;;;;;86.95;44.20;;;5.60;99.90;;;;;;5115460;28;20106;-78
2023/03/22 01:05:16;;;;;;;96.63;49.28;;;5.60;99.90;;;;;;5114082;28;20019;-79
2023/03/22 01:07:43;;;;;;;97.32;48.67;;;5.60;99.90;;;;;;5115300;28;20028;-76
2023/03/22 01:10:10;;;;;;;89.93;46.08;;;5.60;99.90;;;;;;5115384;28;20508;-78
2023/03/22 01:12:36;;;;;;;88.90;44.53;;;5.60;99.90;;;;;;5115382;27;20511;-76
2023/03/22 01:15:03;;;;;;;74.53;39.60;;;5.50;99.90;;;;;;5115448;28;20024;-76
2023/03/22 01:17:29;;;;;;;79.68;42.03;;;5.50;99.90;;;;;;5114070;28;20012;-78
2023/03/22 01:19:55;;;;;;;83.88;44.10;;;5.50;99.90;;;;;;5115358;28;20026;-80
2023/03/22 01:22:20;;;;;;;82.53;42.72;;;5.50;99.90;;;;;;5115326;28;20362;-74
2023/03/22 01:24:48;;;;;;;85.25;43.47;;;5.50;99.90;;;;;;5113990;28;20108;-75
2023/03/22 01:27:13;;;;;;;81.85;42.83;;;5.50;99.90;;;;;;5115124;28;20461;-76
2023/03/22 01:29:39;;;;;;;88.65;42.83;;;5.40;99.90;;;;;;5114725;28;20076;-76
2023/03/22 01:32:05;;;;;;;82.80;42.47;;;5.40;99.90;;;;;;5113722;28;20020;-78
2023/03/22 01:34:30;;;;;;;80.15;41.13;;;5.40;99.90;;;;;;5114943;28;20023;-76
2023/03/22 01:36:56;;;;;;;75.90;42.40;;;5.40;99.90;;;;;;5113735;28;20023;-77
2023/03/22 01:39:22;;;;;;;81.80;43.97;;;5.40;99.90;;;;;;5114805;28;20024;-77
2023/03/22 01:41:47;;;;;;;69.43;38.65;;;5.40;99.90;;;;;;5113565;28;20027;-76
2023/03/22 01:44:18;;;;;;;80.97;39.20;;;5.30;99.90;;;;;;5114880;28;20023;-76
2023/03/22 01:46:46;;;;;;;70.85;39.50;;;5.30;99.90;;;;;;5114017;28;20114;-76
2023/03/22 01:49:34;;;;;;;72.05;37.35;;;5.20;99.90;;;;;;5114441;28;20043;-78
2023/03/22 01:52:05;;;;;;;72.10;37.15;;;5.20;99.90;;;;;;5112989;28;20036;-78
2023/03/22 01:54:41;;;;;;;73.20;37.55;;;5.20;99.90;;;;;;5113337;28;20027;-78
2023/03/22 01:57:07;;;;;;;70.80;37.72;;;5.20;99.90;;;;;;5113260;28;20019;-76
2023/03/22 01:59:33;;;;;;;76.43;39.35;;;5.20;99.90;;;;;;5114531;28;20024;-76
2023/03/22 02:01:59;;;;;;;78.22;41.38;;;5.20;99.90;;;;;;5114556;28;20051;-78
2023/03/22 02:04:32;;;;;;;76.57;39.95;;;5.20;99.90;;;;;;5113142;28;20362;-76
2023/03/22 02:07:14;;;;;;;70.47;38.42;;;5.20;99.90;;;;;;5113142;28;20490;-78
2023/03/22 02:09:42;;;;;;;76.68;40.63;;;5.10;99.90;;;;;;5114294;28;20031;-78
2023/03/22 02:12:23;;;;;;;80.25;39.92;;;5.10;99.90;;;;;;5113004;28;20400;-76
2023/03/22 02:15:07;;;;;;;73.15;37.67;;;5.10;99.90;;;;;;5114389;28;20028;-76
2023/03/22 02:17:40;;;;;;;71.95;36.20;;;5.00;99.90;;;;;;5114360;28;20024;-78
2023/03/22 02:20:27;;;;;;;67.82;36.92;;;5.00;99.90;;;;;;5114322;27;20418;-76
2023/03/22 02:22:56;;;;;;;72.47;39.08;;;4.90;99.90;;;;;;5114050;28;20027;-77
2023/03/22 02:26:03;;;;;;;64.15;35.15;;;4.80;99.90;;;;;;5112843;28;20476;-76
2023/03/22 02:28:42;;;;;;;64.50;34.00;;;4.70;99.90;;;;;;5113986;28;20023;-78
2023/03/22 02:31:31;;;;;;;72.28;35.13;;;4.60;99.90;;;;;;5112732;28;20118;-76
2023/03/22 02:34:24;;;;;;;60.70;32.50;;;4.60;99.90;;;;;;5114090;27;20020;-76
2023/03/22 02:37:01;;;;;;;68.47;36.85;;;4.60;99.90;;;;;;5112651;28;20035;-77
2023/03/22 02:39:38;;;;;;;65.93;35.85;;;4.50;99.90;;;;;;5112698;28;20020;-76
2023/03/22 02:42:17;;;;;;;76.07;37.13;;;4.50;99.90;;;;;;5113248;28;20020;-77
2023/03/22 02:45:00;;;;;;;72.30;37.30;;;4.40;99.90;;;;;;5112554;28;20064;-77
2023/03/22 02:48:03;;;;;;;78.57;37.22;;;4.40;99.90;;;;;;5113638;28;20047;-77
2023/03/22 02:50:39;;;;;;;70.13;34.65;;;4.40;99.90;;;;;;5112456;28;20028;-74
2023/03/22 02:53:28;;;;;;;62.00;34.95;;;4.40;99.90;;;;;;5113740;28;20023;-74
2023/03/22 02:56:17;;;;;;;68.43;33.67;;;4.30;99.90;;;;;;5112491;28;20074;-76
2023/03/22 02:58:47;;;;;;;70.55;34.13;;;4.20;99.90;;;;;;5113173;28;20114;-76
2023/03/22 03:01:22;;;;;;;74.80;37.50;;;4.20;99.90;;;;;;5113628;28;20054;-76
2023/03/22 03:03:49;;;;;;;64.38;32.88;;;4.20;99.90;;;;;;5112447;28;20023;-76
2023/03/22 03:06:21;;;;;;;54.72;28.73;;;4.10;99.90;;;;;;5113568;28;20062;-77
2023/03/22 03:08:49;;;;;;;56.45;31.55;;;4.00;99.90;;;;;;5113565;28;20084;-76
2023/03/22 03:11:15;;;;;;;65.20;31.83;;;3.90;99.90;;;;;;5113596;28;20019;-74
2023/03/22 03:13:41;;;;;;;57.67;32.55;;;3.90;99.90;;;;;;5113633;28;20373;-75
2023/03/22 03:16:12;;;;;;;63.25;30.40;;;3.90;99.90;;;;;;5112192;28;20497;-74
2023/03/22 03:18:56;;;;;;;62.35;31.67;;;3.80;99.90;;;;;;5113274;28;20016;-76
2023/03/22 03:21:41;;;;;;;60.97;30.38;;;3.80;99.90;;;;;;5113537;28;20173;-76
2023/03/22 03:24:26;;;;;;;58.33;28.42;;;3.70;99.90;;;;;;5113446;28;20023;-75
2023/03/22 03:27:02;;;;;;;59.33;29.98;;;3.70;99.90;;;;;;5113427;28;20491;-75
2023/03/22 03:29:31;;;;;;;69.63;31.98;;;3.60;99.90;;;;;;5113332;28;20032;-74
2023/03/22 03:32:05;;;;;;;57.50;32.25;;;3.60;99.90;;;;;;5113390;28;20484;-75
2023/03/22 03:34:42;;;;;;;59.72;29.98;;;3.60;99.90;;;;;;5112130;28;20475;-74
2023/03/22 03:37:13;;;;;;;60.53;28.45;;;3.50;99.90;;;;;;5113252;28;20031;-75
2023/03/22 03:39:44;;;;;;;48.30;27.52;;;3.40;99.90;;;;;;5113226;28;20057;-77
2023/03/22 03:42:15;;;;;;;50.75;26.63;;;3.40;99.90;;;;;;5112118;28;20020;-77
2023/03/22 03:44:42;;;;;;;51.63;27.10;;;3.30;99.90;;;;;;5113237;28;20100;-75
2023/03/22 03:47:08;;;;;;;53.35;26.85;;;3.30;99.90;;;;;;5111756;28;20024;-77
2023/03/22 03:49:34;;;;;;;51.58;27.10;;;3.20;99.90;;;;;;5113181;28;20036;-76
2023/03/22 03:52:02;;;;;;;53.40;29.33;;;3.20;99.90;;;;;;5113220;28;20028;-75
2023/03/22 03:54:27;;;;;;;54.92;29.20;;;3.30;99.90;;;;;;5117031;28;20059;-76
2023/03/22 03:56:53;;;;;;;46.65;25.85;;;3.30;99.90;;;;;;5115672;28;20061;-76
2023/03/22 03:59:22;;;;;;;52.80;25.88;;;3.10;99.90;;;;;;5116959;28;20024;-76
2023/03/22 04:01:51;;;;;;;44.72;26.58;;;3.00;99.90;;;;;;5116770;28;20044;-77
2023/03/22 04:04:25;;;;;;;46.17;24.98;;;3.00;99.90;;;;;;5115502;28;20031;-75
2023/03/22 04:06:56;;;;;;;47.65;25.70;;;3.00;99.90;;;;;;5116794;28;20034;-80
2023/03/22 04:09:25;;;;;;;45.70;25.70;;;2.90;99.90;;;;;;5116663;28;20038;-77
2023/03/22 04:11:51;;;;;;;50.60;26.23;;;2.90;99.90;;;;;;5115435;28;20114;-77
2023/03/22 04:14:17;;;;;;;64.65;25.83;;;2.80;99.90;;;;;;5116656;28;20449;-76
2023/03/22 04:16:42;;;;;;;50.47;27.02;;;2.80;99.90;;;;;;5115301;28;20053;-77
2023/03/22 04:19:08;;;;;;;53.97;26.33;;;2.80;99.90;;;;;;5115258;28;20059;-75
2023/03/22 04:21:33;;;;;;;44.92;24.77;;;2.80;99.90;;;;;;5116553;28;20050;-77
2023/03/22 04:23:59;;;;;;;45.38;24.95;;;2.80;99.90;;;;;;5116551;28;20016;-75
2023/03/22 04:26:25;;;;;;;47.55;25.02;;;2.80;99.90;;;;;;5115253;28;20110;-76
2023/03/22 04:28:50;;;;;;;47.47;25.25;;;2.70;99.90;;;;;;5116321;28;20035;-75
2023/03/22 04:31:17;;;;;;;49.63;26.20;;;2.80;99.90;;;;;;5116361;28;20031;-76
2023/03/22 04:33:46;;;;;;;51.72;28.08;;;2.80;99.90;;;;;;5114992;28;20384;-75
2023/03/22 04:36:16;;;;;;;50.25;26.98;;;2.80;99.90;;;;;;5116226;28;20027;-74
2023/03/22 04:38:42;;;;;;;49.78;25.88;;;2.90;99.90;;;;;;5115426;28;20031;-76
2023/03/22 04:41:09;;;;;;;58.10;27.52;;;2.90;99.90;;;;;;5114899;28;20020;-74
2023/03/22 04:43:38;;;;;;;56.28;29.27;;;2.90;99.90;;;;;;5114746;28;20051;-74
2023/03/22 04:46:05;;;;;;;61.83;30.27;;;3.00;99.90;;;;;;5116062;28;20019;-74
2023/03/22 04:48:31;;;;;;;52.90;26.55;;;3.00;99.90;;;;;;5110146;28;20105;-75
2023/03/22 04:51:02;;;;;;;57.47;28.70;;;3.10;99.90;;;;;;5094428;28;20024;-75
2023/03/22 04:53:28;;;;;;;75.15;36.72;;;3.10;99.90;;;;;;5095602;28;20020;-75
2023/03/22 04:55:58;;;;;;;61.22;29.73;;;3.20;99.90;;;;;;5111927;28;20030;-76
2023/03/22 04:58:25;;;;;;;57.10;29.77;;;3.30;99.90;;;;;;5114440;28;20106;-78
2023/03/22 05:00:52;;;;;;;63.95;30.92;;;3.40;99.90;;;;;;5115712;28;20032;-76
2023/03/22 05:03:21;;;;;;;73.82;32.75;;;3.40;99.90;;;;;;5115687;28;20434;-79
2023/03/22 05:05:55;;;;;;;69.90;32.05;;;3.50;99.90;;;;;;5113789;28;20034;-78
2023/03/22 05:08:23;;;;;;;71.43;31.70;;;3.70;99.90;;;;;;5115681;28;20476;-79
2023/03/22 05:10:51;;;;;;;72.90;35.17;;;3.70;99.90;;;;;;5114224;28;20118;-79
2023/03/22 05:13:17;;;;;;;78.35;35.42;;;3.80;99.90;;;;;;5115469;28;20012;-77
2023/03/22 05:15:43;;;;;;;80.78;36.08;;;3.90;99.90;;;;;;5115075;28;20019;-78
2023/03/22 05:18:09;;;;;;;66.38;33.22;;;4.00;99.90;;;;;;5114118;28;20016;-78
2023/03/22 05:20:35;;;;;;;77.70;37.60;;;4.10;99.90;;;;;;5113975;28;20020;-78
2023/03/22 05:23:01;;;;;;;86.95;38.20;;;4.20;99.90;;;;;;5113973;28;20028;-76
2023/03/22 05:25:27;;;;;;;89.28;38.38;;;4.30;99.90;;;;;;5110436;28;20119;-76
2023/03/22 05:27:53;;;;;;;86.05;38.15;;;4.30;99.90;;;;;;5094763;28;20507;-78
2023/03/22 05:30:19;;;;;;;88.90;37.22;;;4.50;99.90;;;;;;5093381;28;20032;-79
2023/03/22 05:32:46;;;;;;;81.68;39.75;;;4.60;99.90;;;;;;5094582;28;20051;-77
2023/03/22 05:35:12;;;;;;;81.72;36.85;;;4.70;99.90;;;;;;5093344;28;20030;-76
2023/03/22 05:37:38;;;;;;;88.95;38.67;;;4.70;99.90;;;;;;5094574;28;20016;-76
2023/03/22 05:40:08;;;;;;;83.15;39.47;;;4.80;99.90;;;;;;5093017;28;20039;-78
2023/03/22 05:42:35;;;;;;;79.03;37.53;;;4.80;99.90;;;;;;5093061;28;20478;-78
2023/03/22 05:45:01;;;;;;;89.93;42.47;;;4.90;99.90;;;;;;5093247;28;20373;-76
2023/03/22 05:47:26;;;;;;;98.45;42.67;;;5.00;99.90;;;;;;5092849;28;20493;-75
2023/03/22 05:49:52;;;;;;;92.63;39.95;;;5.10;99.90;;;;;;5094353;28;20036;-75
2023/03/22 05:52:18;;;;;;;77.90;38.05;;;5.20;99.90;;;;;;5094319;28;20102;-78
2023/03/22 05:54:44;;;;;;;89.95;38.60;;;5.20;99.90;;;;;;5094222;28;20026;-79
2023/03/22 05:57:10;;;;;;;87.82;40.63;;;5.30;99.90;;;;;;5095258;28;20373;-78
2023/03/22 05:59:35;;;;;;;78.43;36.33;;;5.30;99.90;;;;;;5104028;28;20024;-78
2023/03/22 06:02:01;;;;;;;81.25;37.20;;;5.40;99.90;;;;;;5100894;28;20119;-76
2023/03/22 06:04:27;;;;;;;76.90;34.97;;;5.40;99.90;;;;;;5104144;28;20015;-76
2023/03/22 06:06:52;;;;;;;73.28;35.47;;;5.40;99.90;;;;;;5101694;28;20475;-77
2023/03/22 06:09:18;;;;;;;77.82;36.25;;;5.40;99.90;;;;;;5100176;28;20028;-76
2023/03/22 06:11:44;;;;;;;84.95;40.33;;;5.50;99.90;;;;;;5107649;28;20020;-76
2023/03/22 06:14:10;;;;;;;84.70;39.10;;;5.50;99.90;;;;;;5112942;28;20032;-76
2023/03/22 06:16:35;;;;;;;82.82;37.70;;;5.50;99.90;;;;;;5111883;28;20477;-76
2023/03/22 06:19:01;;;;;;;81.93;37.60;;;5.50;99.90;;;;;;5112877;28;20018;-77
2023/03/22 06:21:27;;;;;;;73.32;37.65;;;5.50;99.90;;;;;;5115615;28;20411;-78
2023/03/22 06:23:52;;;;;;;80.43;38.15;;;5.60;99.90;;;;;;5112611;27;20054;-78
2023/03/22 06:26:18;;;;;;;79.10;39.35;;;5.60;99.90;;;;;;5101267;28;20099;-78
2023/03/22 06:28:44;;;;;;;74.38;36.13;;;5.50;99.90;;;;;;5097639;28;20027;-78
2023/03/22 06:31:09;;;;;;;69.07;33.83;;;5.60;99.90;;;;;;5101813;28;20038;-78
2023/03/22 06:33:35;;;;;;;86.55;40.38;;;5.70;99.90;;;;;;5101234;28;20113;-78
2023/03/22 06:36:02;;;;;;;97.07;46.58;;;5.80;99.90;;;;;;5100112;28;20091;-78
2023/03/22 06:38:29;;;;;;;80.15;37.92;;;5.90;99.90;;;;;;5101794;28;20024;-78
2023/03/22 06:40:54;;;;;;;71.47;37.47;;;6.00;99.90;;;;;;5101299;28;20461;-78
2023/03/22 06:43:20;;;;;;;63.45;31.42;;;6.10;99.90;;;;;;5110029;28;20032;-78
2023/03/22 06:45:47;;;;;;;61.63;30.13;;;6.20;99.90;;;;;;5113808;28;20027;-77
2023/03/22 06:48:12;;;;;;;60.08;30.90;;;6.30;99.90;;;;;;5096575;28;20036;-76
2023/03/22 06:50:40;;;;;;;61.30;31.15;;;6.40;99.90;;;;;;5091380;28;20040;-76
2023/03/22 06:53:06;;;;;;;62.58;31.00;;;6.50;99.90;;;;;;5091317;28;20055;-76
2023/03/22 06:55:35;;;;;;;62.83;30.20;;;6.70;99.90;;;;;;5091455;28;20025;-76
2023/03/22 06:58:01;;;;;;;59.70;30.98;;;6.80;99.90;;;;;;5088122;28;20115;-78
2023/03/22 07:00:27;;;;;;;73.20;35.78;;;6.90;99.90;;;;;;5089163;28;20020;-76
2023/03/22 07:02:53;;;;;;;93.18;43.35;;;7.20;99.90;;;;;;5088928;28;20490;-76
2023/03/22 07:05:19;;;;;;;70.35;37.22;;;7.30;99.90;;;;;;5087760;28;20043;-77
2023/03/22 07:07:45;;;;;;;76.93;33.88;;;7.50;99.90;;;;;;5088675;28;20020;-76
2023/03/22 07:10:11;;;;;;;61.05;30.60;;;7.60;99.90;;;;;;5088504;28;20710;-78
2023/03/22 07:12:36;;;;;;;49.33;26.55;;;7.70;99.90;;;;;;5090561;28;20051;-77
2023/03/22 07:15:03;;;;;;;55.22;27.85;;;7.70;99.90;;;;;;5093703;28;20038;-76
2023/03/22 07:17:28;;;;;;;50.55;26.17;;;7.80;99.90;;;;;;5093660;28;20508;-78
2023/03/22 07:19:54;;;;;;;52.95;27.05;;;7.80;99.90;;;;;;5090329;28;20107;-77
2023/03/22 07:22:23;;;;;;;44.58;25.30;;;7.80;99.90;;;;;;5091927;28;20063;-78
2023/03/22 07:24:49;;;;;;;51.13;26.67;;;7.90;99.90;;;;;;5092395;28;20028;-78
2023/03/22 07:27:16;;;;;;;111.32;52.40;;;8.00;99.90;;;;;;5092332;28;20024;-77
2023/03/22 07:29:41;;;;;;;44.55;25.08;;;8.00;99.90;;;;;;5094396;28;20055;-78
2023/03/22 07:32:07;;;;;;;43.95;23.15;;;8.00;99.90;;;;;;5094570;28;20487;-78
2023/03/22 07:34:33;;;;;;;42.95;24.60;;;8.10;99.90;;;;;;5095685;28;20016;-77
2023/03/22 07:36:58;;;;;;;43.55;24.27;;;8.10;99.90;;;;;;5094434;28;20094;-78
2023/03/22 07:39:24;;;;;;;48.33;24.73;;;8.10;99.90;;;;;;5094424;28;20052;-78
2023/03/22 07:41:50;;;;;;;71.30;37.83;;;8.20;99.90;;;;;;5095523;28;20032;-77
2023/03/22 07:44:17;;;;;;;81.68;39.47;;;8.30;99.90;;;;;;5094832;28;20020;-78
2023/03/22 07:46:43;;;;;;;63.10;31.27;;;8.30;99.90;;;;;;5096996;28;20367;-77
2023/03/22 07:49:09;;;;;;;44.55;25.85;;;8.40;99.90;;;;;;5095305;28;20047;-77
2023/03/22 07:51:34;;;;;;;44.22;23.73;;;8.40;99.90;;;;;;5096898;28;20063;-77
2023/03/22 07:54:01;;;;;;;39.92;21.85;;;8.50;99.90;;;;;;5095484;28;20032;-77
2023/03/22 07:56:27;;;;;;;40.33;21.13;;;8.50;99.90;;;;;;5096582;28;20131;-78
2023/03/22 07:58:52;;;;;;;34.53;18.40;;;8.50;99.90;;;;;;5095327;28;20020;-77
2023/03/22 08:01:18;;;;;;;34.70;19.90;;;8.50;99.90;;;;;;5096591;28;20035;-77
2023/03/22 08:03:44;;;;;;;38.83;20.80;;;8.50;99.90;;;;;;5096562;28;20027;-78
2023/03/22 08:06:11;;;;;;;37.05;20.35;;;8.60;99.90;;;;;;5095226;28;20052;-77
2023/03/22 08:08:37;;;;;;;39.33;22.05;;;8.60;99.90;;;;;;5096346;28;20024;-77
2023/03/22 08:11:04;;;;;;;33.90;20.10;;;8.70;99.90;;;;;;5095337;28;20024;-78
2023/03/22 08:13:30;;;;;;;35.22;19.10;;;8.70;99.90;;;;;;5095129;28;20026;-78
2023/03/22 08:15:55;;;;;;;31.77;18.42;;;8.90;99.90;;;;;;5095019;28;20520;-78
2023/03/22 08:18:21;;;;;;;33.30;17.58;;;9.00;99.90;;;;;;5094993;28;20358;-78
2023/03/22 08:20:53;;;;;;;30.17;17.73;;;9.00;99.90;;;;;;5095016;28;20055;-79
2023/03/22 08:23:19;;;;;;;28.37;17.27;;;9.00;99.90;;;;;;5096234;28;20024;-78
2023/03/22 08:25:44;;;;;;;29.15;18.13;;;9.10;99.90;;;;;;5096154;28;20031;-77
2023/03/22 08:28:12;;;;;;;30.63;17.95;;;9.20;99.90;;;;;;5096076;28;20028;-78
2023/03/22 08:30:38;;;;;;;26.00;16.42;;;9.20;99.90;;;;;;5096048;28;20028;-77
2023/03/22 08:33:05;;;;;;;30.75;17.65;;;9.40;99.90;;;;;;5094816;28;20031;-78
2023/03/22 08:35:31;;;;;;;29.63;17.55;;;9.50;99.90;;;;;;5094762;28;20028;-77
2023/03/22 08:37:57;;;;;;;25.95;15.70;;;9.60;99.90;;;;;;5096043;28;20038;-77
2023/03/22 08:40:22;;;;;;;25.23;14.77;;;9.80;99.90;;;;;;5093685;28;20024;-78
2023/03/22 08:42:49;;;;;;;23.88;15.32;;;9.90;99.90;;;;;;5094528;28;20023;-78
2023/03/22 08:45:15;;;;;;;25.33;14.63;;;10.10;99.90;;;;;;5094281;28;20031;-79
2023/03/22 08:47:41;;;;;;;19.27;12.65;;;10.20;99.90;;;;;;5094318;28;20401;-78
2023/03/22 08:50:08;;;;;;;19.42;11.07;;;10.30;99.90;;;;;;5095556;28;20040;-78
2023/03/22 08:52:33;;;;;;;18.60;9.93;;;10.50;99.90;;;;;;5094281;28;20024;-77
2023/03/22 08:54:59;;;;;;;16.05;9.50;;;10.50;99.90;;;;;;5095502;28;20426;-78
2023/03/22 08:57:26;;;;;;;16.45;9.88;;;10.50;99.90;;;;;;5094279;28;20048;-77
2023/03/22 08:59:53;;;;;;;15.05;9.57;;;10.60;99.90;;;;;;5094281;28;20057;-78
2023/03/22 09:02:18;;;;;;;14.48;8.98;;;10.80;99.90;;;;;;5094032;28;20032;-77
2023/03/22 09:04:44;;;;;;;13.63;10.35;;;10.90;99.90;;;;;;5094485;28;20427;-78
2023/03/22 09:07:10;;;;;;;16.40;9.73;;;11.00;99.90;;;;;;5095421;28;20103;-78
2023/03/22 09:09:36;;;;;;;14.95;9.13;;;11.20;99.90;;;;;;5093928;28;20032;-78
2023/03/22 09:12:02;;;;;;;11.93;8.88;;;11.30;99.90;;;;;;5093915;28;20032;-78
2023/03/22 09:14:27;;;;;;;11.88;7.78;;;11.60;99.90;;;;;;5095224;28;20038;-78
2023/03/22 09:16:53;;;;;;;14.15;7.82;;;11.80;95.80;;;;;;5093911;28;20100;-78
2023/03/22 09:19:19;;;;;;;8.88;7.18;;;12.00;91.00;;;;;;5093900;28;20016;-79
2023/03/22 09:21:44;;;;;;;11.82;7.10;;;12.20;90.20;;;;;;5093772;28;20060;-78
2023/03/22 09:24:10;;;;;;;9.57;6.85;;;12.30;85.00;;;;;;5093684;28;20020;-78
2023/03/22 09:26:36;;;;;;;14.27;8.98;;;12.40;82.70;;;;;;5094864;28;20020;-78
2023/03/22 09:29:01;;;;;;;9.77;7.18;;;12.50;84.70;;;;;;5093491;28;20038;-79
2023/03/22 09:31:27;;;;;;;10.85;7.53;;;12.60;82.00;;;;;;5093646;28;20020;-79
2023/03/22 09:33:53;;;;;;;12.80;8.40;;;12.70;81.10;;;;;;5093441;28;20047;-78
2023/03/22 09:36:19;;;;;;;12.52;7.93;;;12.70;83.40;;;;;;5093636;28;20027;-78
2023/03/22 09:38:45;;;;;;;8.63;7.03;;;12.70;82.00;;;;;;5094978;28;20077;-78
2023/03/22 09:41:37;;;;;;;8.98;7.57;;;12.80;81.70;;;;;;5094458;28;20036;-78
2023/03/22 09:44:07;;;;;;;9.77;7.30;;;12.90;83.80;;;;;;5094604;28;20485;-78
2023/03/22 09:46:39;;;;;;;10.02;7.63;;;12.90;83.10;;;;;;5094222;28;20028;-79
2023/03/22 09:49:13;;;;;;;12.00;8.32;;;12.90;80.60;;;;;;5093091;28;20139;-79
2023/03/22 09:51:48;;;;;;;12.50;7.75;;;13.00;79.30;;;;;;5094453;28;20072;-78
2023/03/22 09:54:20;;;;;;;11.00;8.32;;;13.00;78.50;;;;;;5093215;28;20020;-78
2023/03/22 09:57:14;;;;;;;13.18;8.57;;;13.10;80.00;;;;;;5094449;28;20020;-79
2023/03/22 09:59:48;;;;;;;12.35;8.75;;;13.10;78.70;;;;;;5089583;28;20031;-78
2023/03/22 10:02:32;;;;;;;11.55;8.13;;;13.20;78.60;;;;;;5093017;28;20024;-79
2023/03/22 10:05:21;;;;;;;14.13;8.93;;;13.20;78.60;;;;;;5092131;28;20024;-78
2023/03/22 10:08:10;;;;;;;12.88;9.02;;;13.20;78.90;;;;;;5092178;28;20039;-78
2023/03/22 10:10:40;;;;;;;11.52;7.60;;;13.30;79.40;;;;;;5092827;28;20126;-78
2023/03/22 10:13:06;;;;;;;12.02;9.02;;;13.40;80.20;;;;;;5094406;28;20024;-78
2023/03/22 10:15:35;;;;;;;13.38;9.32;;;13.50;80.00;;;;;;5092955;28;20024;-78
2023/03/22 10:18:05;;;;;;;14.45;9.43;;;13.60;78.90;;;;;;5092729;28;20477;-79
2023/03/22 10:20:42;;;;;;;11.57;8.50;;;13.60;77.90;;;;;;5092817;28;20038;-79
2023/03/22 10:23:14;;;;;;;12.60;9.88;;;13.70;78.10;;;;;;5092596;28;20432;-79
2023/03/22 10:25:41;;;;;;;11.93;8.73;;;13.70;77.70;;;;;;5093950;28;20032;-79
2023/03/22 10:28:42;;;;;;;15.43;9.82;;;13.80;77.00;;;;;;5092590;28;20028;-78
2023/03/22 10:31:16;;;;;;;11.30;8.95;;;14.00;74.90;;;;;;5082146;28;20101;-79
2023/03/22 10:33:51;;;;;;;14.68;9.10;;;14.20;75.40;;;;;;5092385;28;20048;-79
2023/03/22 10:36:22;;;;;;;17.73;10.88;;;14.30;73.80;;;;;;5093802;28;20023;-79
2023/03/22 10:38:51;;;;;;;15.55;10.10;;;14.50;75.20;;;;;;5092932;28;20054;-78
2023/03/22 10:41:20;;;;;;;22.15;12.93;;;14.40;73.50;;;;;;5092391;28;20016;-78
2023/03/22 10:43:52;;;;;;;14.77;10.23;;;14.40;71.40;;;;;;5092324;28;20028;-79
2023/03/22 10:46:21;;;;;;;15.48;10.75;;;14.40;72.00;;;;;;5093713;28;20016;-78
2023/03/22 10:48:49;;;;;;;14.73;10.50;;;14.30;71.30;;;;;;5092307;28;20048;-78
2023/03/22 10:51:49;;;;;;;13.68;10.02;;;14.30;72.60;;;;;;5093464;28;20430;-78
2023/03/22 10:54:20;;;;;;;13.95;10.32;;;14.20;73.20;;;;;;5092238;28;20020;-79
2023/03/22 10:56:45;;;;;;;15.15;11.05;;;14.30;74.20;;;;;;5093609;28;20027;-78
2023/03/22 10:59:48;;;;;;;16.17;10.93;;;14.30;73.50;;;;;;5092063;28;20020;-78
2023/03/22 11:02:22;;;;;;;17.25;12.27;;;14.50;75.30;;;;;;5092895;28;20103;-78
2023/03/22 11:04:51;;;;;;;15.50;11.93;;;14.70;76.10;;;;;;5093308;28;20388;-79
2023/03/22 11:07:43;;;;;;;15.07;11.45;;;14.60;72.40;;;;;;5091777;28;20055;-79
2023/03/22 11:10:09;;;;;;;18.55;12.38;;;14.70;73.30;;;;;;5092245;28;20523;-79
2023/03/22 11:12:42;;;;;;;15.77;11.52;;;14.80;74.60;;;;;;5091902;28;20020;-79
2023/03/22 11:15:28;;;;;;;18.48;13.90;;;15.00;77.00;;;;;;5092053;28;20016;-79
2023/03/22 11:18:04;;;;;;;18.40;12.38;;;14.80;71.50;;;;;;5093384;28;20432;-79
2023/03/22 11:20:32;;;;;;;17.02;11.45;;;14.90;71.60;;;;;;5091973;28;20016;-79
2023/03/22 11:23:01;;;;;;;18.67;11.23;;;15.00;73.00;;;;;;5092282;28;20397;-79
2023/03/22 11:25:31;;;;;;;13.85;10.88;;;15.00;71.60;;;;;;5093407;28;20381;-80
2023/03/22 11:28:19;;;;;;;14.18;10.23;;;15.00;71.20;;;;;;5091866;28;20031;-79
2023/03/22 11:31:12;;;;;;;14.70;10.38;;;15.00;71.10;;;;;;5091847;28;20024;-79
2023/03/22 11:33:56;;;;;;;12.80;10.02;;;15.20;72.10;;;;;;5092951;28;20030;-79
2023/03/22 11:36:23;;;;;;;15.20;9.40;;;15.30;71.80;;;;;;5091892;28;20027;-79
2023/03/22 11:39:00;;;;;;;13.18;9.27;;;15.40;70.90;;;;;;5093084;28;20431;-79
2023/03/22 11:41:33;;;;;;;15.68;9.85;;;15.50;69.10;;;;;;5091838;28;20020;-79
2023/03/22 11:44:05;;;;;;;16.80;9.60;;;15.60;68.60;;;;;;5093000;28;20024;-79
2023/03/22 11:46:31;;;;;;;11.77;9.57;;;15.60;67.70;;;;;;5092958;28;20082;-79
2023/03/22 11:49:00;;;;;;;12.15;9.02;;;15.50;68.10;;;;;;5091519;28;20121;-79
2023/03/22 11:51:36;;;;;;;13.23;9.88;;;15.50;68.00;;;;;;5091930;28;20063;-79
2023/03/22 11:54:09;;;;;;;14.82;9.52;;;15.40;68.00;;;;;;5091047;28;20412;-79
2023/03/22 11:56:41;;;;;;;13.10;8.90;;;15.40;68.50;;;;;;5092762;28;20016;-79
2023/03/22 11:59:15;;;;;;;12.57;9.70;;;15.50;68.30;;;;;;5092814;28;20099;-79
2023/03/22 12:02:10;;;;;;;13.32;9.82;;;15.40;67.40;;;;;;5091605;28;20016;-79
2023/03/22 12:04:40;;;;;;;12.93;9.18;;;15.40;66.80;;;;;;5092924;28;20020;-79
2023/03/22 12:07:16;;;;;;;14.23;10.10;;;15.40;67.50;;;;;;5091638;28;20052;-79
2023/03/22 12:09:47;;;;;;;16.30;10.25;;;15.40;68.00;;;;;;5091499;28;20040;-79
2023/03/22 12:12:18;;;;;;;14.10;9.95;;;15.60;68.60;;;;;;5091539;28;20024;-79
2023/03/22 12:14:53;;;;;;;13.75;9.57;;;15.60;66.70;;;;;;5092394;28;20016;-79
2023/03/22 12:17:37;;;;;;;13.75;9.23;;;15.70;68.00;;;;;;5096447;28;20020;-79
2023/03/22 12:20:30;;;;;;;20.13;11.35;;;15.80;67.70;;;;;;5096310;28;20020;-79
2023/03/22 12:22:57;;;;;;;15.18;10.02;;;15.80;67.50;;;;;;5094959;28;20028;-79
2023/03/22 12:25:30;;;;;;;15.15;11.60;;;15.90;66.10;;;;;;5094979;28;20020;-79
2023/03/22 12:28:03;;;;;;;18.95;10.75;;;15.90;67.60;;;;;;5094931;28;20099;-79
2023/03/22 12:30:36;;;;;;;15.18;11.63;;;15.90;67.20;;;;;;5094767;28;20435;-79
2023/03/22 12:33:17;;;;;;;16.15;11.10;;;16.00;65.10;;;;;;5095934;28;20024;-79
2023/03/22 12:35:45;;;;;;;16.67;11.55;;;16.10;66.40;;;;;;5094712;28;20584;-80
2023/03/22 12:38:45;;;;;;;16.65;11.82;;;16.20;66.70;;;;;;5095870;28;20028;-79
2023/03/22 12:41:43;;;;;;;14.30;11.30;;;16.10;64.90;;;;;;5095565;28;20024;-79
2023/03/22 12:44:16;;;;;;;14.85;11.13;;;16.30;67.00;;;;;;5085402;28;20424;-79
2023/03/22 12:46:54;;;;;;;18.40;12.15;;;16.50;67.60;;;;;;5098840;28;20023;-79
2023/03/22 12:49:34;;;;;;;15.43;11.45;;;16.60;66.20;;;;;;5115782;28;20032;-80
2023/03/22 12:52:15;;;;;;;18.58;12.43;;;16.50;64.50;;;;;;5116093;27;20028;-79